sensor_id;sensor_type;location;lat;lon;timestamp;temperature;humidity
29813;DHT22;16707;48.106;11.548;2023-05-10T00:01:46;13.30;99.90
29813;DHT22;16707;48.106;11.548;2023-05-10T00:04:16;13.30;99.90
29813;DHT22;16707;48.106;11.548;2023-05-10T00:06:43;13.30;99.90
29813;DHT22;16707;48.106;11.548;2023-05-10T00:09:10;13.30;99.90
29813;DHT22;16707;48.106;11.548;2023-05-10T00:11:50;13.30;99.90
29813;DHT22;16707;48.106;11.548;2023-05-10T00:14:23;13.30;99.90
29813;DHT22;16707;48.106;11.548;2023-05-10T00:17:07;13.30;99.90
29813;DHT22;16707;48.106;11.548;2023-05-10T00:19:47;13.30;99.90
29813;DHT22;16707;48.106;11.548;2023-05-10T00:22:14;13.30;99.90
29813;DHT22;16707;48.106;11.548;2023-05-10T00:24:44;13.30;99.90
29813;DHT22;16707;48.106;11.548;2023-05-10T00:27:14;13.30;99.90
29813;DHT22;16707;48.106;11.548;2023-05-10T00:29:44;13.30;99.90
29813;DHT22;16707;48.106;11.548;2023-05-10T00:32:20;13.30;99.90
29813;DHT22;16707;48.106;11.548;2023-05-10T00:34:49;13.30;99.90
29813;DHT22;16707;48.106;11.548;2023-05-10T00:37:23;13.30;99.90
29813;DHT22;16707;48.106;11.548;2023-05-10T00:39:51;13.30;99.90
29813;DHT22;16707;48.106;11.548;2023-05-10T00:42:24;13.30;99.90
29813;DHT22;16707;48.106;11.548;2023-05-10T00:44:57;13.20;99.90
29813;DHT22;16707;48.106;11.548;2023-05-10T00:47:37;13.30;99.90
29813;DHT22;16707;48.106;11.548;2023-05-10T00:50:17;13.20;99.90
29813;DHT22;16707;48.106;11.548;2023-05-10T00:52:47;13.20;99.90
29813;DHT22;16707;48.106;11.548;2023-05-10T00:55:27;13.30;99.90
29813;DHT22;16707;48.106;11.548;2023-05-10T00:58:12;13.30;99.90
29813;DHT22;16707;48.106;11.548;2023-05-10T01:00:52;13.20;99.90
29813;DHT22;16707;48.106;11.548;2023-05-10T01:03:23;13.20;99.90
29813;DHT22;16707;48.106;11.548;2023-05-10T01:05:53;13.20;99.90
29813;DHT22;16707;48.106;11.548;2023-05-10T01:08:27;13.20;99.90
29813;DHT22;16707;48.106;11.548;2023-05-10T01:10:54;13.20;99.90
29813;DHT22;16707;48.106;11.548;2023-05-10T01:13:40;13.20;99.90
29813;DHT22;16707;48.106;11.548;2023-05-10T01:16:21;13.20;99.90
29813;DHT22;16707;48.106;11.548;2023-05-10T01:18:53;13.20;99.90
29813;DHT22;16707;48.106;11.548;2023-05-10T01:21:29;13.20;99.90
29813;DHT22;16707;48.106;11.548;2023-05-10T01:24:25;13.20;99.90
29813;DHT22;16707;48.106;11.548;2023-05-10T01:27:17;13.20;99.90
29813;DHT22;16707;48.106;11.548;2023-05-10T01:30:22;13.10;99.90
29813;DHT22;16707;48.106;11.548;2023-05-10T01:33:00;13.10;99.90
29813;DHT22;16707;48.106;11.548;2023-05-10T01:35:34;13.10;99.90
29813;DHT22;16707;48.106;11.548;2023-05-10T01:38:09;13.10;99.90
29813;DHT22;16707;48.106;11.548;2023-05-10T01:43:30;13.10;99.90
29813;DHT22;16707;48.106;11.548;2023-05-10T01:46:23;13.10;99.90
29813;DHT22;16707;48.106;11.548;2023-05-10T01:49:01;13.10;99.90
29813;DHT22;16707;48.106;11.548;2023-05-10T01:51:35;13.00;99.90
29813;DHT22;16707;48.106;11.548;2023-05-10T01:54:09;13.00;99.90
29813;DHT22;16707;48.106;11.548;2023-05-10T01:56:46;13.00;99.90
29813;DHT22;16707;48.106;11.548;2023-05-10T01:59:21;13.00;99.90
29813;DHT22;16707;48.106;11.548;2023-05-10T02:02:02;13.00;99.90
29813;DHT22;16707;48.106;11.548;2023-05-10T02:04:41;13.00;99.90
29813;DHT22;16707;48.106;11.548;2023-05-10T02:07:15;13.00;99.90
29813;DHT22;16707;48.106;11.548;2023-05-10T02:09:46;13.00;99.90
29813;DHT22;16707;48.106;11.548;2023-05-10T02:12:15;13.00;99.90
29813;DHT22;16707;48.106;11.548;2023-05-10T02:14:56;13.00;99.90
29813;DHT22;16707;48.106;11.548;2023-05-10T02:17:30;12.90;99.90
29813;DHT22;16707;48.106;11.548;2023-05-10T02:20:02;13.00;99.90
29813;DHT22;16707;48.106;11.548;2023-05-10T02:22:39;13.00;99.90
29813;DHT22;16707;48.106;11.548;2023-05-10T02:25:23;12.90;99.90
29813;DHT22;16707;48.106;11.548;2023-05-10T02:27:58;12.90;99.90
29813;DHT22;16707;48.106;11.548;2023-05-10T02:30:56;12.90;99.90
29813;DHT22;16707;48.106;11.548;2023-05-10T02:33:30;12.90;99.90
29813;DHT22;16707;48.106;11.548;2023-05-10T02:36:09;12.90;99.90
29813;DHT22;16707;48.106;11.548;2023-05-10T02:38:40;12.90;99.90
29813;DHT22;16707;48.106;11.548;2023-05-10T02:41:09;12.90;99.90
29813;DHT22;16707;48.106;11.548;2023-05-10T02:43:42;12.80;99.90
29813;DHT22;16707;48.106;11.548;2023-05-10T02:46:20;12.80;99.90
29813;DHT22;16707;48.106;11.548;2023-05-10T02:49:03;12.80;99.90
29813;DHT22;16707;48.106;11.548;2023-05-10T02:51:48;12.80;99.90
29813;DHT22;16707;48.106;11.548;2023-05-10T02:54:20;12.80;99.90
29813;DHT22;16707;48.106;11.548;2023-05-10T02:57:00;12.80;99.90
29813;DHT22;16707;48.106;11.548;2023-05-10T02:59:35;12.80;99.90
29813;DHT22;16707;48.106;11.548;2023-05-10T03:02:06;12.80;99.90
29813;DHT22;16707;48.106;11.548;2023-05-10T03:04:40;12.80;99.90
29813;DHT22;16707;48.106;11.548;2023-05-10T03:07:18;12.90;99.90
29813;DHT22;16707;48.106;11.548;2023-05-10T03:09:47;12.80;99.90
29813;DHT22;16707;48.106;11.548;2023-05-10T03:12:22;12.80;99.90
29813;DHT22;16707;48.106;11.548;2023-05-10T03:15:13;12.80;99.90
29813;DHT22;16707;48.106;11.548;2023-05-10T03:17:55;12.80;99.90
29813;DHT22;16707;48.106;11.548;2023-05-10T03:20:26;12.80;99.90
29813;DHT22;16707;48.106;11.548;2023-05-10T03:23:04;12.80;99.90
29813;DHT22;16707;48.106;11.548;2023-05-10T03:25:32;12.80;99.90
29813;DHT22;16707;48.106;11.548;2023-05-10T03:28:04;12.80;99.90
29813;DHT22;16707;48.106;11.548;2023-05-10T03:30:35;12.80;99.90
29813;DHT22;16707;48.106;11.548;2023-05-10T03:33:05;12.80;99.90
29813;DHT22;16707;48.106;11.548;2023-05-10T03:35:32;12.80;99.90
29813;DHT22;16707;48.106;11.548;2023-05-10T03:38:01;12.90;99.90
29813;DHT22;16707;48.106;11.548;2023-05-10T03:40:33;12.80;99.90
29813;DHT22;16707;48.106;11.548;2023-05-10T03:43:20;12.90;99.90
29813;DHT22;16707;48.106;11.548;2023-05-10T03:45:54;12.90;99.90
29813;DHT22;16707;48.106;11.548;2023-05-10T03:48:26;12.90;99.90
29813;DHT22;16707;48.106;11.548;2023-05-10T03:50:56;12.90;99.90
29813;DHT22;16707;48.106;11.548;2023-05-10T03:53:33;12.90;99.90
29813;DHT22;16707;48.106;11.548;2023-05-10T03:56:14;12.80;99.90
29813;DHT22;16707;48.106;11.548;2023-05-10T03:58:44;12.90;99.90
29813;DHT22;16707;48.106;11.548;2023-05-10T04:01:23;12.80;99.90
29813;DHT22;16707;48.106;11.548;2023-05-10T04:03:53;12.90;99.90
29813;DHT22;16707;48.106;11.548;2023-05-10T04:06:26;12.90;99.90
29813;DHT22;16707;48.106;11.548;2023-05-10T04:08:54;12.90;99.90
29813;DHT22;16707;48.106;11.548;2023-05-10T04:11:24;13.00;99.90
29813;DHT22;16707;48.106;11.548;2023-05-10T04:14:01;13.10;99.90
29813;DHT22;16707;48.106;11.548;2023-05-10T04:16:31;13.10;99.90
29813;DHT22;16707;48.106;11.548;2023-05-10T04:19:01;13.10;99.90
29813;DHT22;16707;48.106;11.548;2023-05-10T04:21:28;13.10;99.90
29813;DHT22;16707;48.106;11.548;2023-05-10T04:23:57;13.10;99.90
29813;DHT22;16707;48.106;11.548;2023-05-10T04:26:30;13.10;99.90
29813;DHT22;16707;48.106;11.548;2023-05-10T04:29:16;13.20;99.90
29813;DHT22;16707;48.106;11.548;2023-05-10T04:31:46;13.20;99.90
29813;DHT22;16707;48.106;11.548;2023-05-10T04:34:21;13.20;99.90
29813;DHT22;16707;48.106;11.548;2023-05-10T04:36:52;13.30;99.90
29813;DHT22;16707;48.106;11.548;2023-05-10T04:39:29;13.30;99.90
29813;DHT22;16707;48.106;11.548;2023-05-10T04:41:57;13.30;99.90
29813;DHT22;16707;48.106;11.548;2023-05-10T04:44:31;13.30;99.90
29813;DHT22;16707;48.106;11.548;2023-05-10T04:46:59;13.30;99.90
29813;DHT22;16707;48.106;11.548;2023-05-10T04:49:30;13.30;99.90
29813;DHT22;16707;48.106;11.548;2023-05-10T04:52:00;13.30;99.90
29813;DHT22;16707;48.106;11.548;2023-05-10T04:54:42;13.30;99.90
29813;DHT22;16707;48.106;11.548;2023-05-10T04:57:10;13.40;99.90
29813;DHT22;16707;48.106;11.548;2023-05-10T04:59:40;13.30;99.90
29813;DHT22;16707;48.106;11.548;2023-05-10T05:02:08;13.30;99.90
29813;DHT22;16707;48.106;11.548;2023-05-10T05:04:43;13.10;99.90
29813;DHT22;16707;48.106;11.548;2023-05-10T05:07:10;13.10;99.90
29813;DHT22;16707;48.106;11.548;2023-05-10T05:09:39;13.50;99.90
29813;DHT22;16707;48.106;11.548;2023-05-10T05:12:12;13.60;99.90
29813;DHT22;16707;48.106;11.548;2023-05-10T05:14:43;13.70;99.90
29813;DHT22;16707;48.106;11.548;2023-05-10T05:17:11;14.10;99.90
29813;DHT22;16707;48.106;11.548;2023-05-10T05:19:38;14.00;99.90
29813;DHT22;16707;48.106;11.548;2023-05-10T05:22:15;13.90;99.90
29813;DHT22;16707;48.106;11.548;2023-05-10T05:24:47;13.80;99.90
29813;DHT22;16707;48.106;11.548;2023-05-10T05:27:34;13.80;99.90
29813;DHT22;16707;48.106;11.548;2023-05-10T05:30:02;13.70;99.90
29813;DHT22;16707;48.106;11.548;2023-05-10T05:32:32;13.30;99.90
29813;DHT22;16707;48.106;11.548;2023-05-10T05:35:02;13.10;99.90
29813;DHT22;16707;48.106;11.548;2023-05-10T05:37:35;12.90;99.90
29813;DHT22;16707;48.106;11.548;2023-05-10T05:40:05;12.70;99.90
29813;DHT22;16707;48.106;11.548;2023-05-10T05:42:41;12.70;99.90
29813;DHT22;16707;48.106;11.548;2023-05-10T05:45:11;12.60;99.90
29813;DHT22;16707;48.106;11.548;2023-05-10T05:47:41;12.60;99.90
29813;DHT22;16707;48.106;11.548;2023-05-10T05:50:09;12.50;99.90
29813;DHT22;16707;48.106;11.548;2023-05-10T05:52:40;12.30;99.90
29813;DHT22;16707;48.106;11.548;2023-05-10T05:55:14;12.20;99.90
29813;DHT22;16707;48.106;11.548;2023-05-10T05:57:52;12.30;99.90
29813;DHT22;16707;48.106;11.548;2023-05-10T06:00:19;12.30;99.90
29813;DHT22;16707;48.106;11.548;2023-05-10T06:02:49;12.40;99.90
29813;DHT22;16707;48.106;11.548;2023-05-10T06:05:19;12.50;99.90
29813;DHT22;16707;48.106;11.548;2023-05-10T06:07:46;12.70;99.90
29813;DHT22;16707;48.106;11.548;2023-05-10T06:10:20;12.60;99.90
29813;DHT22;16707;48.106;11.548;2023-05-10T06:12:51;12.70;99.90
29813;DHT22;16707;48.106;11.548;2023-05-10T06:15:27;12.80;99.90
29813;DHT22;16707;48.106;11.548;2023-05-10T06:17:59;12.80;99.90
29813;DHT22;16707;48.106;11.548;2023-05-10T06:20:27;12.90;99.90
29813;DHT22;16707;48.106;11.548;2023-05-10T06:22:53;13.00;99.90
29813;DHT22;16707;48.106;11.548;2023-05-10T06:25:22;13.00;99.90
29813;DHT22;16707;48.106;11.548;2023-05-10T06:27:49;13.10;99.90
29813;DHT22;16707;48.106;11.548;2023-05-10T06:30:21;13.10;99.90
29813;DHT22;16707;48.106;11.548;2023-05-10T06:32:56;13.30;99.90
29813;DHT22;16707;48.106;11.548;2023-05-10T06:35:24;13.50;99.90
29813;DHT22;16707;48.106;11.548;2023-05-10T06:37:55;13.70;99.90
29813;DHT22;16707;48.106;11.548;2023-05-10T06:40:27;13.90;99.90
29813;DHT22;16707;48.106;11.548;2023-05-10T06:42:58;13.90;99.90
29813;DHT22;16707;48.106;11.548;2023-05-10T06:45:27;14.00;99.90
29813;DHT22;16707;48.106;11.548;2023-05-10T06:47:57;14.30;99.90
29813;DHT22;16707;48.106;11.548;2023-05-10T06:50:26;14.80;99.90
29813;DHT22;16707;48.106;11.548;2023-05-10T06:52:53;14.90;99.90
29813;DHT22;16707;48.106;11.548;2023-05-10T06:55:25;14.90;99.90
29813;DHT22;16707;48.106;11.548;2023-05-10T06:57:54;15.50;99.90
29813;DHT22;16707;48.106;11.548;2023-05-10T07:00:24;15.70;99.90
29813;DHT22;16707;48.106;11.548;2023-05-10T07:02:57;15.70;99.90
29813;DHT22;16707;48.106;11.548;2023-05-10T07:05:32;15.90;99.90
29813;DHT22;16707;48.106;11.548;2023-05-10T07:08:05;15.60;99.90
29813;DHT22;16707;48.106;11.548;2023-05-10T07:10:34;15.50;99.90
29813;DHT22;16707;48.106;11.548;2023-05-10T07:13:04;15.50;99.90
29813;DHT22;16707;48.106;11.548;2023-05-10T07:15:31;15.90;99.90
29813;DHT22;16707;48.106;11.548;2023-05-10T07:17:59;15.90;99.90
29813;DHT22;16707;48.106;11.548;2023-05-10T07:20:32;15.80;99.90
29813;DHT22;16707;48.106;11.548;2023-05-10T07:23:05;15.90;99.90
29813;DHT22;16707;48.106;11.548;2023-05-10T07:25:33;16.40;99.90
29813;DHT22;16707;48.106;11.548;2023-05-10T07:28:00;16.60;99.90
29813;DHT22;16707;48.106;11.548;2023-05-10T07:30:31;16.60;99.90
29813;DHT22;16707;48.106;11.548;2023-05-10T07:32:58;16.80;99.90
29813;DHT22;16707;48.106;11.548;2023-05-10T07:35:25;16.60;99.90
29813;DHT22;16707;48.106;11.548;2023-05-10T07:37:55;16.50;99.90
29813;DHT22;16707;48.106;11.548;2023-05-10T07:40:24;16.50;99.90
29813;DHT22;16707;48.106;11.548;2023-05-10T07:42:53;16.90;99.90
29813;DHT22;16707;48.106;11.548;2023-05-10T07:45:20;17.30;99.90
29813;DHT22;16707;48.106;11.548;2023-05-10T07:47:47;17.70;99.90
29813;DHT22;16707;48.106;11.548;2023-05-10T07:50:16;17.70;99.90
29813;DHT22;16707;48.106;11.548;2023-05-10T07:52:44;17.80;99.90
29813;DHT22;16707;48.106;11.548;2023-05-10T07:55:14;17.80;99.90
29813;DHT22;16707;48.106;11.548;2023-05-10T07:57:46;18.00;99.90
29813;DHT22;16707;48.106;11.548;2023-05-10T08:00:17;18.30;99.90
29813;DHT22;16707;48.106;11.548;2023-05-10T08:02:45;18.40;99.90
29813;DHT22;16707;48.106;11.548;2023-05-10T08:05:13;18.50;99.90
29813;DHT22;16707;48.106;11.548;2023-05-10T08:07:42;18.80;99.80
29813;DHT22;16707;48.106;11.548;2023-05-10T08:10:09;19.00;98.00
29813;DHT22;16707;48.106;11.548;2023-05-10T08:12:37;18.60;98.10
29813;DHT22;16707;48.106;11.548;2023-05-10T08:15:06;18.20;99.20
29813;DHT22;16707;48.106;11.548;2023-05-10T08:17:42;18.00;98.10
29813;DHT22;16707;48.106;11.548;2023-05-10T08:20:13;17.80;98.90
29813;DHT22;16707;48.106;11.548;2023-05-10T08:22:42;17.30;99.90
29813;DHT22;16707;48.106;11.548;2023-05-10T08:25:09;17.50;99.90
29813;DHT22;16707;48.106;11.548;2023-05-10T08:27:36;17.50;99.90
29813;DHT22;16707;48.106;11.548;2023-05-10T08:30:04;17.80;99.90
29813;DHT22;16707;48.106;11.548;2023-05-10T08:32:32;17.30;99.50
29813;DHT22;16707;48.106;11.548;2023-05-10T08:35:01;16.60;99.90
29813;DHT22;16707;48.106;11.548;2023-05-10T08:37:32;16.30;99.90
29813;DHT22;16707;48.106;11.548;2023-05-10T08:39:59;15.80;99.90
29813;DHT22;16707;48.106;11.548;2023-05-10T08:42:30;15.80;99.90
29813;DHT22;16707;48.106;11.548;2023-05-10T08:45:05;15.90;99.90
29813;DHT22;16707;48.106;11.548;2023-05-10T08:47:37;15.90;99.90
29813;DHT22;16707;48.106;11.548;2023-05-10T08:50:15;15.90;99.90
29813;DHT22;16707;48.106;11.548;2023-05-10T08:52:45;16.10;99.90
29813;DHT22;16707;48.106;11.548;2023-05-10T08:55:15;16.00;99.90
29813;DHT22;16707;48.106;11.548;2023-05-10T08:57:43;15.70;99.90
29813;DHT22;16707;48.106;11.548;2023-05-10T09:00:13;15.50;99.90
29813;DHT22;16707;48.106;11.548;2023-05-10T09:02:42;15.10;99.90
29813;DHT22;16707;48.106;11.548;2023-05-10T09:05:12;15.30;99.90
29813;DHT22;16707;48.106;11.548;2023-05-10T09:07:41;15.30;99.90
29813;DHT22;16707;48.106;11.548;2023-05-10T09:10:09;15.60;99.90
29813;DHT22;16707;48.106;11.548;2023-05-10T09:12:44;15.90;99.90
29813;DHT22;16707;48.106;11.548;2023-05-10T09:15:15;16.10;99.90
29813;DHT22;16707;48.106;11.548;2023-05-10T09:17:49;16.40;99.90
29813;DHT22;16707;48.106;11.548;2023-05-10T09:20:18;16.20;99.90
29813;DHT22;16707;48.106;11.548;2023-05-10T09:22:46;16.10;99.90
29813;DHT22;16707;48.106;11.548;2023-05-10T09:25:15;16.00;99.90
29813;DHT22;16707;48.106;11.548;2023-05-10T09:27:45;15.90;99.90
29813;DHT22;16707;48.106;11.548;2023-05-10T09:30:16;15.70;99.90
29813;DHT22;16707;48.106;11.548;2023-05-10T09:32:47;15.70;99.90
29813;DHT22;16707;48.106;11.548;2023-05-10T09:35:22;15.70;99.90
29813;DHT22;16707;48.106;11.548;2023-05-10T09:37:57;15.80;99.90
29813;DHT22;16707;48.106;11.548;2023-05-10T09:40:30;16.10;99.90
29813;DHT22;16707;48.106;11.548;2023-05-10T09:43:02;16.50;99.90
29813;DHT22;16707;48.106;11.548;2023-05-10T09:45:34;17.00;99.90
29813;DHT22;16707;48.106;11.548;2023-05-10T09:48:09;17.20;99.90
29813;DHT22;16707;48.106;11.548;2023-05-10T09:50:37;17.60;99.10
29813;DHT22;16707;48.106;11.548;2023-05-10T09:53:07;17.10;98.50
29813;DHT22;16707;48.106;11.548;2023-05-10T09:55:44;17.30;99.00
29813;DHT22;16707;48.106;11.548;2023-05-10T09:58:15;17.90;97.50
29813;DHT22;16707;48.106;11.548;2023-05-10T10:00:44;18.20;96.50
29813;DHT22;16707;48.106;11.548;2023-05-10T10:03:17;18.60;96.30
29813;DHT22;16707;48.106;11.548;2023-05-10T10:05:47;18.90;96.20
29813;DHT22;16707;48.106;11.548;2023-05-10T10:08:17;19.10;94.00
29813;DHT22;16707;48.106;11.548;2023-05-10T10:10:45;19.50;92.20
29813;DHT22;16707;48.106;11.548;2023-05-10T10:13:13;19.70;91.50
29813;DHT22;16707;48.106;11.548;2023-05-10T10:15:43;19.60;90.20
29813;DHT22;16707;48.106;11.548;2023-05-10T10:18:13;19.20;90.80
29813;DHT22;16707;48.106;11.548;2023-05-10T10:20:41;18.70;90.30
29813;DHT22;16707;48.106;11.548;2023-05-10T10:23:10;18.50;91.30
29813;DHT22;16707;48.106;11.548;2023-05-10T10:25:40;18.70;92.40
29813;DHT22;16707;48.106;11.548;2023-05-10T10:28:20;18.70;90.70
29813;DHT22;16707;48.106;11.548;2023-05-10T10:30:55;19.10;90.10
29813;DHT22;16707;48.106;11.548;2023-05-10T10:33:51;19.50;90.20
29813;DHT22;16707;48.106;11.548;2023-05-10T10:36:24;19.80;87.80
29813;DHT22;16707;48.106;11.548;2023-05-10T10:39:01;20.30;85.00
29813;DHT22;16707;48.106;11.548;2023-05-10T10:41:34;20.70;83.60
29813;DHT22;16707;48.106;11.548;2023-05-10T10:44:24;21.40;80.30
29813;DHT22;16707;48.106;11.548;2023-05-10T10:47:23;20.80;79.10
29813;DHT22;16707;48.106;11.548;2023-05-10T10:50:05;20.80;77.50
29813;DHT22;16707;48.106;11.548;2023-05-10T10:52:37;20.70;78.10
29813;DHT22;16707;48.106;11.548;2023-05-10T10:55:10;19.80;82.00
29813;DHT22;16707;48.106;11.548;2023-05-10T10:57:45;19.30;80.40
29813;DHT22;16707;48.106;11.548;2023-05-10T11:00:27;18.90;84.60
29813;DHT22;16707;48.106;11.548;2023-05-10T11:03:00;18.30;90.40
29813;DHT22;16707;48.106;11.548;2023-05-10T11:05:38;17.60;94.60
29813;DHT22;16707;48.106;11.548;2023-05-10T11:08:14;17.00;98.60
29813;DHT22;16707;48.106;11.548;2023-05-10T11:11:03;16.50;99.90
29813;DHT22;16707;48.106;11.548;2023-05-10T11:13:34;16.20;99.90
29813;DHT22;16707;48.106;11.548;2023-05-10T11:16:23;16.00;99.90
29813;DHT22;16707;48.106;11.548;2023-05-10T11:19:06;15.70;99.90
29813;DHT22;16707;48.106;11.548;2023-05-10T11:21:45;15.80;99.90
29813;DHT22;16707;48.106;11.548;2023-05-10T11:24:17;15.80;99.90
29813;DHT22;16707;48.106;11.548;2023-05-10T11:27:00;15.90;99.90
29813;DHT22;16707;48.106;11.548;2023-05-10T11:29:30;16.00;99.90
29813;DHT22;16707;48.106;11.548;2023-05-10T11:32:00;15.90;99.90
29813;DHT22;16707;48.106;11.548;2023-05-10T11:34:32;15.60;99.90
29813;DHT22;16707;48.106;11.548;2023-05-10T11:37:05;15.10;99.90
29813;DHT22;16707;48.106;11.548;2023-05-10T11:39:32;14.70;99.90
29813;DHT22;16707;48.106;11.548;2023-05-10T11:42:03;14.50;99.90
29813;DHT22;16707;48.106;11.548;2023-05-10T11:44:34;14.20;99.90
29813;DHT22;16707;48.106;11.548;2023-05-10T11:47:03;14.00;99.90
29813;DHT22;16707;48.106;11.548;2023-05-10T11:49:32;13.90;99.90
29813;DHT22;16707;48.106;11.548;2023-05-10T11:52:06;13.80;99.90
29813;DHT22;16707;48.106;11.548;2023-05-10T11:54:34;13.80;99.90
29813;DHT22;16707;48.106;11.548;2023-05-10T11:57:03;13.60;99.90
29813;DHT22;16707;48.106;11.548;2023-05-10T11:59:37;13.50;99.90
29813;DHT22;16707;48.106;11.548;2023-05-10T12:02:05;13.40;99.90
29813;DHT22;16707;48.106;11.548;2023-05-10T12:04:35;13.30;99.90
29813;DHT22;16707;48.106;11.548;2023-05-10T12:07:11;13.30;99.90
29813;DHT22;16707;48.106;11.548;2023-05-10T12:09:42;13.30;99.90
29813;DHT22;16707;48.106;11.548;2023-05-10T12:12:18;13.20;99.90
29813;DHT22;16707;48.106;11.548;2023-05-10T12:14:57;13.20;99.90
29813;DHT22;16707;48.106;11.548;2023-05-10T12:17:29;13.30;99.90
29813;DHT22;16707;48.106;11.548;2023-05-10T12:20:13;13.40;99.90
29813;DHT22;16707;48.106;11.548;2023-05-10T12:22:47;13.50;99.90
29813;DHT22;16707;48.106;11.548;2023-05-10T12:25:15;13.60;99.90
29813;DHT22;16707;48.106;11.548;2023-05-10T12:27:51;13.70;99.90
29813;DHT22;16707;48.106;11.548;2023-05-10T12:30:25;13.70;99.90
29813;DHT22;16707;48.106;11.548;2023-05-10T12:32:53;13.90;99.90
29813;DHT22;16707;48.106;11.548;2023-05-10T12:35:21;13.90;99.90
29813;DHT22;16707;48.106;11.548;2023-05-10T12:37:50;13.90;99.90
29813;DHT22;16707;48.106;11.548;2023-05-10T12:40:17;14.10;99.90
29813;DHT22;16707;48.106;11.548;2023-05-10T12:42:51;14.10;99.90
29813;DHT22;16707;48.106;11.548;2023-05-10T12:45:21;14.20;99.90
29813;DHT22;16707;48.106;11.548;2023-05-10T12:47:48;14.20;99.90
29813;DHT22;16707;48.106;11.548;2023-05-10T12:50:18;14.30;99.90
29813;DHT22;16707;48.106;11.548;2023-05-10T12:52:48;14.30;99.90
29813;DHT22;16707;48.106;11.548;2023-05-10T12:55:18;14.30;99.90
29813;DHT22;16707;48.106;11.548;2023-05-10T12:57:54;14.30;99.90
29813;DHT22;16707;48.106;11.548;2023-05-10T13:00:25;14.30;99.90
29813;DHT22;16707;48.106;11.548;2023-05-10T13:02:54;14.30;99.90
29813;DHT22;16707;48.106;11.548;2023-05-10T13:05:27;14.40;99.90
29813;DHT22;16707;48.106;11.548;2023-05-10T13:08:00;14.40;99.90
29813;DHT22;16707;48.106;11.548;2023-05-10T13:10:29;14.40;99.90
29813;DHT22;16707;48.106;11.548;2023-05-10T13:13:01;14.50;99.90
29813;DHT22;16707;48.106;11.548;2023-05-10T13:15:32;14.50;99.90
29813;DHT22;16707;48.106;11.548;2023-05-10T13:18:08;14.60;99.90
29813;DHT22;16707;48.106;11.548;2023-05-10T13:20:35;14.60;99.90
29813;DHT22;16707;48.106;11.548;2023-05-10T13:23:04;14.70;99.90
29813;DHT22;16707;48.106;11.548;2023-05-10T13:25:34;14.90;99.90
29813;DHT22;16707;48.106;11.548;2023-05-10T13:28:05;14.80;99.90
29813;DHT22;16707;48.106;11.548;2023-05-10T13:30:38;15.00;99.90
29813;DHT22;16707;48.106;11.548;2023-05-10T13:33:12;14.90;99.90
29813;DHT22;16707;48.106;11.548;2023-05-10T13:35:43;14.70;99.90
29813;DHT22;16707;48.106;11.548;2023-05-10T13:38:11;14.60;99.90
29813;DHT22;16707;48.106;11.548;2023-05-10T13:40:39;14.40;99.90
29813;DHT22;16707;48.106;11.548;2023-05-10T13:43:10;14.30;99.90
29813;DHT22;16707;48.106;11.548;2023-05-10T13:45:37;14.30;99.90
29813;DHT22;16707;48.106;11.548;2023-05-10T13:48:08;14.20;99.90
29813;DHT22;16707;48.106;11.548;2023-05-10T13:50:37;14.00;99.90
29813;DHT22;16707;48.106;11.548;2023-05-10T13:53:04;14.00;99.90
29813;DHT22;16707;48.106;11.548;2023-05-10T13:55:34;14.00;99.90
29813;DHT22;16707;48.106;11.548;2023-05-10T13:58:05;14.00;99.90
29813;DHT22;16707;48.106;11.548;2023-05-10T14:00:33;14.00;99.90
29813;DHT22;16707;48.106;11.548;2023-05-10T14:03:00;14.10;99.90
29813;DHT22;16707;48.106;11.548;2023-05-10T14:05:27;14.20;99.90
29813;DHT22;16707;48.106;11.548;2023-05-10T14:07:55;14.20;99.90
29813;DHT22;16707;48.106;11.548;2023-05-10T14:10:26;14.30;99.90
29813;DHT22;16707;48.106;11.548;2023-05-10T14:12:55;14.10;99.90
29813;DHT22;16707;48.106;11.548;2023-05-10T14:15:26;14.10;99.90
29813;DHT22;16707;48.106;11.548;2023-05-10T14:17:54;14.20;99.90
29813;DHT22;16707;48.106;11.548;2023-05-10T14:20:22;14.40;99.90
29813;DHT22;16707;48.106;11.548;2023-05-10T14:22:49;14.40;99.90
29813;DHT22;16707;48.106;11.548;2023-05-10T14:25:18;14.50;99.90
29813;DHT22;16707;48.106;11.548;2023-05-10T14:27:46;14.50;99.90
29813;DHT22;16707;48.106;11.548;2023-05-10T14:30:19;14.50;99.90
29813;DHT22;16707;48.106;11.548;2023-05-10T14:32:47;14.60;99.90
29813;DHT22;16707;48.106;11.548;2023-05-10T14:35:18;14.70;99.90
29813;DHT22;16707;48.106;11.548;2023-05-10T14:37:45;14.80;99.90
29813;DHT22;16707;48.106;11.548;2023-05-10T14:40:12;14.60;99.90
29813;DHT22;16707;48.106;11.548;2023-05-10T14:42:43;14.60;99.90
29813;DHT22;16707;48.106;11.548;2023-05-10T14:45:13;14.60;99.90
29813;DHT22;16707;48.106;11.548;2023-05-10T14:47:42;14.60;99.90
29813;DHT22;16707;48.106;11.548;2023-05-10T14:50:12;14.40;99.90
29813;DHT22;16707;48.106;11.548;2023-05-10T14:52:40;14.30;99.90
29813;DHT22;16707;48.106;11.548;2023-05-10T14:55:08;14.20;99.90
29813;DHT22;16707;48.106;11.548;2023-05-10T14:57:36;14.20;99.90
29813;DHT22;16707;48.106;11.548;2023-05-10T15:00:07;14.10;99.90
29813;DHT22;16707;48.106;11.548;2023-05-10T15:02:38;13.70;99.90
29813;DHT22;16707;48.106;11.548;2023-05-10T15:05:16;13.70;99.90
29813;DHT22;16707;48.106;11.548;2023-05-10T15:07:44;13.70;99.90
29813;DHT22;16707;48.106;11.548;2023-05-10T15:10:13;13.70;99.90
29813;DHT22;16707;48.106;11.548;2023-05-10T15:12:40;13.70;99.90
29813;DHT22;16707;48.106;11.548;2023-05-10T15:15:08;13.60;99.90
29813;DHT22;16707;48.106;11.548;2023-05-10T15:17:38;13.70;99.90
29813;DHT22;16707;48.106;11.548;2023-05-10T15:20:06;13.70;99.90
29813;DHT22;16707;48.106;11.548;2023-05-10T15:22:35;13.80;99.90
29813;DHT22;16707;48.106;11.548;2023-05-10T15:25:05;13.70;99.90
29813;DHT22;16707;48.106;11.548;2023-05-10T15:27:36;13.70;99.90
29813;DHT22;16707;48.106;11.548;2023-05-10T15:30:09;13.70;99.90
29813;DHT22;16707;48.106;11.548;2023-05-10T15:32:43;13.60;99.90
29813;DHT22;16707;48.106;11.548;2023-05-10T15:35:10;13.50;99.90
29813;DHT22;16707;48.106;11.548;2023-05-10T15:37:37;13.40;99.90
29813;DHT22;16707;48.106;11.548;2023-05-10T15:40:07;13.30;99.90
29813;DHT22;16707;48.106;11.548;2023-05-10T15:42:34;13.40;99.90
29813;DHT22;16707;48.106;11.548;2023-05-10T15:45:05;13.20;99.90
29813;DHT22;16707;48.106;11.548;2023-05-10T15:47:33;13.00;99.90
29813;DHT22;16707;48.106;11.548;2023-05-10T15:50:03;13.00;99.90